createdAt,value
2023-04-22T00:00:51.642Z,500.00
2023-04-22T00:01:52.047Z,500.00
2023-04-22T00:02:51.808Z,432.00
2023-04-22T00:03:51.989Z,406.00
2023-04-22T00:04:51.853Z,400.00
2023-04-22T00:05:51.903Z,400.00
2023-04-22T00:06:52.516Z,421.00
2023-04-22T00:07:51.788Z,436.00
2023-04-22T00:08:51.827Z,472.00
2023-04-22T00:09:52.022Z,494.00
2023-04-22T00:10:51.896Z,491.00
2023-04-22T00:11:51.931Z,512.00
2023-04-22T00:12:51.961Z,509.00
2023-04-22T00:13:51.965Z,502.00
2023-04-22T00:14:51.994Z,500.00
2023-04-22T00:15:52.048Z,491.00
2023-04-22T00:16:52.053Z,512.00
2023-04-22T00:17:52.107Z,507.00
2023-04-22T00:18:52.112Z,507.00
2023-04-22T00:19:52.144Z,510.00
2023-04-22T00:20:52.528Z,501.00
2023-04-22T00:21:52.206Z,509.00
2023-04-22T00:22:52.229Z,512.00
2023-04-22T00:23:52.246Z,502.00
2023-04-22T00:24:52.290Z,505.00
2023-04-22T00:25:52.306Z,504.00
2023-04-22T00:26:52.336Z,520.00
2023-04-22T00:27:52.382Z,500.00
2023-04-22T00:28:52.441Z,500.00
2023-04-22T00:29:52.440Z,521.00
2023-04-22T00:30:52.521Z,505.00
2023-04-22T00:31:52.700Z,511.00
2023-04-22T00:32:52.557Z,505.00
2023-04-22T00:33:52.560Z,511.00
2023-04-22T00:34:52.587Z,501.00
2023-04-22T00:35:52.615Z,508.00
2023-04-22T00:36:52.644Z,512.00
2023-04-22T00:37:52.670Z,513.00
2023-04-22T00:38:52.677Z,501.00
2023-04-22T00:39:52.701Z,511.00
2023-04-22T00:40:52.734Z,505.00
2023-04-22T00:41:52.764Z,508.00
2023-04-22T00:42:52.788Z,521.00
2023-04-22T00:43:52.824Z,504.00
2023-04-22T00:44:52.862Z,502.00
2023-04-22T00:45:52.861Z,510.00
2023-04-22T00:46:52.935Z,503.00
2023-04-22T00:47:52.938Z,522.00
2023-04-22T00:48:52.986Z,514.00
2023-04-22T00:49:52.982Z,510.00
2023-04-22T00:50:53.014Z,500.00
2023-04-22T00:51:53.033Z,518.00
2023-04-22T00:52:53.068Z,497.00
2023-04-22T00:53:53.094Z,515.00
2023-04-22T00:54:53.127Z,517.00
2023-04-22T00:55:53.166Z,508.00
2023-04-22T00:56:53.193Z,507.00
2023-04-22T00:57:54.051Z,527.00
2023-04-22T00:58:53.616Z,516.00
2023-04-22T00:59:53.617Z,520.00
2023-04-22T01:00:53.778Z,518.00
2023-04-22T01:01:53.636Z,505.00
2023-04-22T01:02:53.833Z,528.00
2023-04-22T01:03:53.961Z,517.00
2023-04-22T01:04:53.621Z,517.00
2023-04-22T01:05:53.626Z,508.00
2023-04-22T01:06:53.614Z,505.00
2023-04-22T01:07:53.630Z,517.00
2023-04-22T01:08:53.620Z,516.00
2023-04-22T01:09:53.633Z,522.00
2023-04-22T01:10:53.623Z,503.00
2023-04-22T01:11:53.657Z,515.00
2023-04-22T01:12:53.683Z,503.00
2023-04-22T01:13:53.713Z,509.00
2023-04-22T01:14:53.754Z,526.00
2023-04-22T01:15:53.797Z,508.00
2023-04-22T01:16:53.879Z,510.00
2023-04-22T01:17:53.896Z,510.00
2023-04-22T01:18:53.893Z,516.00
2023-04-22T01:19:53.922Z,514.00
2023-04-22T01:20:53.961Z,511.00
2023-04-22T01:21:53.993Z,517.00
2023-04-22T01:22:54.048Z,511.00
2023-04-22T01:23:54.062Z,521.00
2023-04-22T01:24:54.100Z,515.00
2023-04-22T01:25:54.137Z,509.00
2023-04-22T01:26:54.171Z,499.00
2023-04-22T01:27:54.224Z,523.00
2023-04-22T01:28:54.632Z,527.00
2023-04-22T01:29:54.634Z,517.00
2023-04-22T01:30:54.645Z,521.00
2023-04-22T01:31:54.735Z,514.00
2023-04-22T01:32:55.140Z,504.00
2023-04-22T01:33:55.054Z,513.00
2023-04-22T01:34:54.640Z,503.00
2023-04-22T01:35:54.644Z,505.00
2023-04-22T01:36:54.679Z,521.00
2023-04-22T01:37:54.638Z,509.00
2023-04-22T01:38:54.650Z,503.00
2023-04-22T01:39:54.645Z,504.00
2023-04-22T01:40:54.645Z,519.00
2023-04-22T01:41:54.644Z,509.00
2023-04-22T01:42:54.667Z,515.00
2023-04-22T01:43:54.698Z,508.00
2023-04-22T01:44:54.720Z,513.00
2023-04-22T01:45:54.772Z,503.00
2023-04-22T01:46:54.788Z,505.00
2023-04-22T01:47:54.869Z,504.00
2023-04-22T01:48:54.863Z,514.00
2023-04-22T01:49:54.869Z,515.00
2023-04-22T01:50:54.895Z,507.00
2023-04-22T01:51:54.991Z,520.00
2023-04-22T01:52:54.953Z,519.00
2023-04-22T01:53:55.025Z,509.00
2023-04-22T01:54:55.026Z,517.00
2023-04-22T01:55:55.051Z,508.00
2023-04-22T01:56:55.097Z,501.00
2023-04-22T01:57:55.118Z,517.00
2023-04-22T01:58:55.563Z,519.00
2023-04-22T01:59:55.184Z,517.00
2023-04-22T02:00:55.214Z,512.00
2023-04-22T02:01:55.311Z,510.00
2023-04-22T02:02:55.362Z,518.00
2023-04-22T02:03:55.355Z,512.00
2023-04-22T02:04:55.458Z,513.00
2023-04-22T02:05:55.403Z,508.00
2023-04-22T02:06:55.423Z,507.00
2023-04-22T02:07:55.432Z,517.00
2023-04-22T02:08:55.464Z,530.00
2023-04-22T02:09:55.503Z,507.00
2023-04-22T02:10:55.522Z,514.00
2023-04-22T02:11:55.567Z,505.00
2023-04-22T02:12:55.585Z,507.00
2023-04-22T02:13:55.616Z,517.00
2023-04-22T02:14:55.655Z,504.00
2023-04-22T02:15:55.761Z,506.00
2023-04-22T02:16:55.712Z,501.00
2023-04-22T02:17:55.815Z,506.00
2023-04-22T02:18:55.769Z,527.00
2023-04-22T02:19:55.844Z,518.00
2023-04-22T02:20:55.861Z,513.00
2023-04-22T02:21:55.878Z,522.00
2023-04-22T02:22:55.914Z,524.00
2023-04-22T02:23:55.949Z,513.00
2023-04-22T02:24:56.035Z,513.00
2023-04-22T02:25:56.572Z,521.00
2023-04-22T02:26:56.562Z,500.00
2023-04-22T02:27:56.088Z,511.00
2023-04-22T02:28:57.069Z,511.00
2023-04-22T02:29:56.573Z,515.00
2023-04-22T02:30:56.194Z,508.00
2023-04-22T02:31:56.271Z,528.00
2023-04-22T02:32:56.363Z,507.00
2023-04-22T02:33:57.073Z,519.00
2023-04-22T02:34:56.307Z,516.00
2023-04-22T02:35:56.352Z,515.00
2023-04-22T02:36:56.432Z,524.00
2023-04-22T02:37:56.416Z,506.00
2023-04-22T02:38:56.443Z,507.00
2023-04-22T02:39:56.479Z,508.00
2023-04-22T02:40:56.505Z,516.00
2023-04-22T02:41:56.525Z,523.00
2023-04-22T02:42:56.567Z,506.00
2023-04-22T02:43:56.620Z,516.00
2023-04-22T02:44:56.649Z,505.00
2023-04-22T02:45:56.685Z,523.00
2023-04-22T02:46:56.771Z,516.00
2023-04-22T02:47:56.800Z,502.00
2023-04-22T02:48:56.793Z,513.00
2023-04-22T02:49:56.828Z,500.00
2023-04-22T02:50:56.870Z,508.00
2023-04-22T02:51:56.892Z,516.00
2023-04-22T02:52:57.001Z,515.00
2023-04-22T02:53:56.964Z,517.00
2023-04-22T02:54:57.003Z,514.00
2023-04-22T02:55:57.043Z,510.00
2023-04-22T02:56:57.073Z,501.00
2023-04-22T02:57:57.109Z,509.00
2023-04-22T02:58:57.148Z,500.00
2023-04-22T02:59:57.177Z,523.00
2023-04-22T03:00:57.279Z,515.00
2023-04-22T03:01:57.277Z,519.00
2023-04-22T03:02:57.432Z,511.00
2023-04-22T03:03:57.519Z,502.00
2023-04-22T03:04:57.351Z,525.00
2023-04-22T03:05:57.394Z,508.00
2023-04-22T03:06:57.505Z,500.00
2023-04-22T03:07:57.457Z,509.00
2023-04-22T03:08:57.517Z,506.00
2023-04-22T03:09:57.536Z,515.00
2023-04-22T03:10:57.561Z,511.00
2023-04-22T03:11:57.593Z,515.00
2023-04-22T03:12:57.628Z,518.00
2023-04-22T03:13:57.676Z,509.00
2023-04-22T03:14:57.703Z,528.00
2023-04-22T03:15:57.755Z,518.00
2023-04-22T03:16:57.846Z,514.00
2023-04-22T03:17:57.864Z,518.00
2023-04-22T03:18:57.840Z,524.00
2023-04-22T03:19:57.889Z,522.00
2023-04-22T03:20:57.912Z,519.00
2023-04-22T03:21:57.970Z,512.00
2023-04-22T03:22:57.983Z,510.00
2023-04-22T03:23:58.022Z,528.00
2023-04-22T03:24:58.096Z,526.00
2023-04-22T03:25:58.109Z,520.00
2023-04-22T03:26:58.153Z,512.00
2023-04-22T03:27:58.191Z,514.00
2023-04-22T03:28:58.234Z,504.00
2023-04-22T03:29:58.279Z,509.00
2023-04-22T03:30:58.318Z,518.00
2023-04-22T03:31:58.402Z,513.00
2023-04-22T03:32:58.475Z,512.00
2023-04-22T03:33:58.450Z,526.00
2023-04-22T03:34:58.484Z,526.00
2023-04-22T03:35:58.524Z,520.00
2023-04-22T03:36:58.571Z,516.00
2023-04-22T03:37:58.609Z,516.00
2023-04-22T03:38:58.652Z,517.00
2023-04-22T03:39:58.694Z,512.00
2023-04-22T03:40:58.770Z,520.00
2023-04-22T03:41:58.775Z,511.00
2023-04-22T03:42:58.827Z,520.00
2023-04-22T03:44:01.520Z,525.00
2023-04-22T03:44:58.848Z,525.00
2023-04-22T03:45:58.894Z,520.00
2023-04-22T03:46:58.832Z,513.00
2023-04-22T03:47:58.886Z,506.00
2023-04-22T03:48:58.806Z,514.00
2023-04-22T03:49:58.800Z,514.00
2023-04-22T03:50:58.787Z,510.00
2023-04-22T03:51:58.785Z,505.00
2023-04-22T03:52:58.769Z,510.00
2023-04-22T03:53:58.813Z,503.00
2023-04-22T03:54:58.754Z,500.00
2023-04-22T03:55:58.810Z,520.00
2023-04-22T03:56:58.764Z,512.00
2023-04-22T03:57:58.733Z,522.00
2023-04-22T03:58:58.726Z,519.00
2023-04-22T03:59:58.720Z,514.00
2023-04-22T04:00:58.708Z,512.00
2023-04-22T04:01:58.768Z,526.00
2023-04-22T04:02:58.845Z,525.00
2023-04-22T04:03:58.967Z,509.00
2023-04-22T04:04:58.841Z,516.00
2023-04-22T04:05:58.808Z,500.00
2023-04-22T04:06:58.807Z,516.00
2023-04-22T04:07:58.650Z,521.00
2023-04-22T04:08:58.641Z,511.00
2023-04-22T04:09:58.646Z,520.00
2023-04-22T04:10:58.625Z,509.00
2023-04-22T04:11:58.609Z,508.00
2023-04-22T04:12:58.633Z,506.00
2023-04-22T04:13:58.589Z,511.00
2023-04-22T04:14:58.640Z,523.00
2023-04-22T04:15:58.719Z,516.00
2023-04-22T04:16:58.692Z,524.00
2023-04-22T04:17:58.778Z,522.00
2023-04-22T04:18:58.773Z,515.00
2023-04-22T04:19:58.804Z,521.00
2023-04-22T04:20:58.816Z,509.00
2023-04-22T04:21:58.851Z,512.00
2023-04-22T04:22:58.878Z,504.00
2023-04-22T04:23:58.914Z,520.00
2023-04-22T04:24:58.953Z,513.00
2023-04-22T04:25:58.986Z,511.00
2023-04-22T04:26:59.024Z,521.00
2023-04-22T04:27:59.074Z,508.00
2023-04-22T04:28:59.762Z,521.00
2023-04-22T04:29:59.139Z,522.00
2023-04-22T04:30:59.197Z,507.00
2023-04-22T04:31:59.226Z,508.00
2023-04-22T04:32:59.310Z,515.00
2023-04-22T04:33:59.286Z,521.00
2023-04-22T04:34:59.326Z,517.00
2023-04-22T04:35:59.752Z,526.00
2023-04-22T04:36:59.751Z,516.00
2023-04-22T04:37:59.740Z,516.00
2023-04-22T04:38:59.741Z,524.00
2023-04-22T04:39:59.738Z,527.00
2023-04-22T04:40:59.759Z,512.00
2023-04-22T04:41:59.739Z,505.00
2023-04-22T04:42:59.745Z,512.00
2023-04-22T04:43:59.745Z,513.00
2023-04-22T04:45:00.771Z,527.00
2023-04-22T04:45:59.760Z,523.00
2023-04-22T04:46:59.841Z,526.00
2023-04-22T04:47:59.889Z,508.00
2023-04-22T04:48:59.871Z,514.00
2023-04-22T04:49:59.908Z,524.00
2023-04-22T04:50:59.952Z,525.00
2023-04-22T04:51:59.984Z,511.00
2023-04-22T04:53:00.809Z,508.00
2023-04-22T04:54:00.043Z,514.00
2023-04-22T04:55:00.123Z,500.00
2023-04-22T04:56:00.131Z,508.00
2023-04-22T04:57:00.149Z,516.00
2023-04-22T04:58:00.179Z,514.00
2023-04-22T04:59:00.220Z,513.00
2023-04-22T05:00:00.267Z,514.00
2023-04-22T05:01:00.302Z,507.00
2023-04-22T05:02:00.331Z,520.00
2023-04-22T05:03:00.452Z,524.00
2023-04-22T05:04:00.901Z,516.00
2023-04-22T05:05:00.809Z,518.00
2023-04-22T05:06:00.764Z,501.00
2023-04-22T05:07:00.773Z,513.00
2023-04-22T05:08:00.765Z,509.00
2023-04-22T05:09:00.765Z,506.00
2023-04-22T05:10:03.139Z,511.00
2023-04-22T05:11:00.767Z,515.00
2023-04-22T05:12:00.773Z,519.00
2023-04-22T05:13:03.477Z,519.00
2023-04-22T05:14:00.790Z,519.00
2023-04-22T05:15:00.768Z,519.00
2023-04-22T05:16:00.842Z,520.00
2023-04-22T05:17:00.832Z,521.00
2023-04-22T05:18:00.794Z,509.00
2023-04-22T05:19:00.830Z,509.00
2023-04-22T05:20:00.767Z,507.00
2023-04-22T05:21:00.792Z,513.00
2023-04-22T05:22:00.773Z,521.00
2023-04-22T05:23:00.767Z,506.00
2023-04-22T05:24:00.774Z,516.00
2023-04-22T05:25:00.763Z,528.00
2023-04-22T05:26:00.727Z,516.00
2023-04-22T05:27:00.360Z,519.00
2023-04-22T05:28:00.355Z,500.00
2023-04-22T05:29:00.334Z,513.00
2023-04-22T05:30:00.310Z,513.00
2023-04-22T05:31:00.308Z,516.00
2023-04-22T05:32:00.385Z,509.00
2023-04-22T05:33:00.777Z,522.00
2023-04-22T05:34:00.776Z,513.00
2023-04-22T05:35:00.775Z,511.00
2023-04-22T05:36:00.782Z,505.00
2023-04-22T05:37:01.143Z,508.00
2023-04-22T05:38:00.777Z,505.00
2023-04-22T05:39:00.771Z,516.00
2023-04-22T05:40:00.780Z,509.00
2023-04-22T05:41:00.788Z,511.00
2023-04-22T05:42:00.785Z,519.00
2023-04-22T05:43:00.784Z,510.00
2023-04-22T05:44:00.781Z,517.00
2023-04-22T05:45:00.815Z,515.00
2023-04-22T05:46:01.213Z,508.00
2023-04-22T05:47:00.892Z,524.00
2023-04-22T05:48:00.960Z,526.00
2023-04-22T05:49:01.004Z,523.00
2023-04-22T05:50:01.014Z,526.00
2023-04-22T05:51:01.039Z,507.00
2023-04-22T05:52:01.086Z,511.00
2023-04-22T05:53:01.113Z,521.00
2023-04-22T05:54:01.153Z,523.00
2023-04-22T05:55:01.197Z,520.00
2023-04-22T05:56:01.229Z,507.00
2023-04-22T05:57:01.269Z,503.00
2023-04-22T05:58:01.307Z,522.00
2023-04-22T05:59:01.351Z,509.00
2023-04-22T06:00:01.398Z,504.00
2023-04-22T06:01:01.387Z,517.00
2023-04-22T06:02:01.446Z,510.00
2023-04-22T06:03:01.664Z,520.00
2023-04-22T06:04:01.681Z,515.00
2023-04-22T06:05:01.911Z,514.00
2023-04-22T06:06:01.794Z,516.00
2023-04-22T06:07:01.617Z,508.00
2023-04-22T06:08:04.651Z,518.00
2023-04-22T06:09:01.643Z,518.00
2023-04-22T06:10:04.684Z,511.00
2023-04-22T06:11:01.636Z,518.00
2023-04-22T06:12:01.632Z,519.00
2023-04-22T06:13:01.633Z,520.00
2023-04-22T06:14:01.629Z,524.00
2023-04-22T06:15:01.629Z,516.00
2023-04-22T06:16:01.706Z,516.00
2023-04-22T06:17:01.610Z,514.00
2023-04-22T06:18:01.663Z,512.00
2023-04-22T06:19:01.617Z,517.00
2023-04-22T06:20:01.593Z,527.00
2023-04-22T06:21:01.629Z,506.00
2023-04-22T06:22:01.586Z,513.00
2023-04-22T06:23:01.583Z,516.00
2023-04-22T06:24:02.156Z,516.00
2023-04-22T06:25:01.582Z,510.00
2023-04-22T06:26:01.596Z,512.00
2023-04-22T06:27:01.558Z,525.00
2023-04-22T06:28:01.572Z,513.00
2023-04-22T06:29:01.551Z,522.00
2023-04-22T06:30:02.160Z,506.00
2023-04-22T06:31:01.693Z,523.00
2023-04-22T06:32:01.597Z,532.00
2023-04-22T06:33:01.729Z,520.00
2023-04-22T06:34:01.658Z,510.00
2023-04-22T06:35:01.709Z,523.00
2023-04-22T06:36:01.749Z,516.00
2023-04-22T06:37:01.787Z,515.00
2023-04-22T06:38:01.816Z,530.00
2023-04-22T06:39:01.847Z,519.00
2023-04-22T06:40:01.896Z,525.00
2023-04-22T06:41:01.919Z,530.00
2023-04-22T06:42:01.954Z,506.00
2023-04-22T06:43:02.658Z,511.00
2023-04-22T06:44:02.018Z,509.00
2023-04-22T06:45:02.130Z,528.00
2023-04-22T06:46:02.094Z,505.00
2023-04-22T06:47:02.206Z,521.00
2023-04-22T06:48:02.189Z,506.00
2023-04-22T06:49:02.200Z,509.00
2023-04-22T06:50:03.177Z,512.00
2023-04-22T06:51:02.671Z,509.00
2023-04-22T06:52:02.279Z,513.00
2023-04-22T06:53:02.338Z,521.00
2023-04-22T06:54:03.163Z,516.00
2023-04-22T06:55:02.381Z,514.00
2023-04-22T06:56:02.419Z,517.00
2023-04-22T06:57:02.458Z,516.00
2023-04-22T06:58:02.490Z,530.00
2023-04-22T06:59:02.523Z,521.00
2023-04-22T07:00:03.173Z,508.00
2023-04-22T07:01:02.672Z,515.00
2023-04-22T07:02:02.711Z,516.00
2023-04-22T07:03:03.238Z,512.00
2023-04-22T07:04:02.694Z,506.00
2023-04-22T07:05:02.729Z,512.00
2023-04-22T07:06:02.763Z,526.00
2023-04-22T07:07:02.795Z,507.00
2023-04-22T07:08:02.827Z,521.00
2023-04-22T07:09:02.885Z,507.00
2023-04-22T07:10:02.910Z,517.00
2023-04-22T07:11:02.946Z,524.00
2023-04-22T07:12:09.704Z,530.00
2023-04-22T07:13:09.625Z,531.00
2023-04-22T07:14:02.966Z,531.00
2023-04-22T07:15:09.616Z,527.00
2023-04-22T07:16:03.036Z,531.00
2023-04-22T07:17:02.971Z,532.00
2023-04-22T07:18:02.951Z,534.00
2023-04-22T07:19:09.615Z,532.00
2023-04-22T07:20:10.124Z,531.00
2023-04-22T07:21:03.012Z,532.00
2023-04-22T07:22:09.615Z,532.00
2023-04-22T07:23:03.002Z,531.00
2023-04-22T07:24:02.996Z,532.00
2023-04-22T07:25:03.023Z,532.00
2023-04-22T07:26:02.986Z,538.00
2023-04-22T07:27:02.980Z,523.00
2023-04-22T07:28:02.981Z,542.00
2023-04-22T07:29:02.969Z,518.00
2023-04-22T07:30:02.964Z,521.00
2023-04-22T07:31:02.961Z,529.00
2023-04-22T07:32:03.017Z,520.00
2023-04-22T07:33:02.952Z,521.00
2023-04-22T07:34:02.914Z,520.00
2023-04-22T07:35:02.918Z,524.00
2023-04-22T07:36:02.921Z,518.00
2023-04-22T07:37:02.906Z,532.00
2023-04-22T07:38:02.885Z,527.00
2023-04-22T07:39:02.885Z,517.00
2023-04-22T07:40:02.926Z,520.00
2023-04-22T07:41:03.003Z,515.00
2023-04-22T07:42:03.006Z,531.00
2023-04-22T07:43:03.058Z,524.00
2023-04-22T07:44:03.099Z,526.00
2023-04-22T07:45:03.145Z,522.00
2023-04-22T07:46:03.214Z,520.00
2023-04-22T07:47:03.222Z,519.00
2023-04-22T07:48:03.334Z,512.00
2023-04-22T07:49:03.304Z,517.00
2023-04-22T07:50:03.370Z,502.00
2023-04-22T07:51:03.383Z,505.00
2023-04-22T07:52:03.413Z,522.00
2023-04-22T07:53:03.453Z,513.00
2023-04-22T07:54:03.495Z,527.00
2023-04-22T07:55:03.524Z,524.00
2023-04-22T07:56:03.571Z,521.00
2023-04-22T07:57:03.628Z,513.00
2023-04-22T07:58:03.638Z,521.00
2023-04-22T07:59:03.687Z,524.00
2023-04-22T08:00:04.081Z,526.00
2023-04-22T08:01:04.167Z,507.00
2023-04-22T08:02:04.226Z,517.00
2023-04-22T08:03:04.274Z,525.00
2023-04-22T08:04:04.290Z,516.00
2023-04-22T08:05:04.239Z,526.00
2023-04-22T08:06:05.027Z,521.00
2023-04-22T08:07:17.111Z,515.00
2023-04-22T08:08:04.127Z,515.00
2023-04-22T08:09:04.124Z,518.00
2023-04-22T08:10:04.116Z,520.00
2023-04-22T08:11:04.127Z,515.00
2023-04-22T08:12:04.121Z,515.00
2023-04-22T08:13:04.148Z,531.00
2023-04-22T08:14:04.127Z,500.00
2023-04-22T08:15:04.161Z,508.00
2023-04-22T08:16:04.168Z,513.00
2023-04-22T08:17:04.156Z,519.00
2023-04-22T08:18:04.218Z,513.00
2023-04-22T08:19:04.122Z,524.00
2023-04-22T08:20:06.575Z,511.00
2023-04-22T08:21:04.307Z,512.00
2023-04-22T08:22:04.125Z,512.00
2023-04-22T08:23:04.134Z,513.00
2023-04-22T08:24:04.130Z,516.00
2023-04-22T08:25:04.125Z,521.00
2023-04-22T08:26:04.140Z,521.00
2023-04-22T08:27:03.850Z,529.00
2023-04-22T08:28:04.124Z,523.00
2023-04-22T08:29:04.176Z,518.00
2023-04-22T08:30:04.082Z,524.00
2023-04-22T08:31:04.157Z,513.00
2023-04-22T08:32:04.123Z,527.00
2023-04-22T08:33:04.315Z,525.00
2023-04-22T08:34:04.124Z,522.00
2023-04-22T08:35:05.482Z,525.00
2023-04-22T08:36:05.022Z,523.00
2023-04-22T08:37:04.196Z,523.00
2023-04-22T08:38:04.119Z,523.00
2023-04-22T08:39:04.307Z,518.00
2023-04-22T08:40:04.123Z,516.00
2023-04-22T08:41:04.312Z,523.00
2023-04-22T08:42:04.130Z,514.00
2023-04-22T08:43:04.123Z,522.00
2023-04-22T08:44:04.122Z,517.00
2023-04-22T08:45:04.148Z,525.00
2023-04-22T08:46:04.131Z,510.00
2023-04-22T08:47:04.170Z,527.00
2023-04-22T08:48:04.132Z,519.00
2023-04-22T08:49:04.133Z,523.00
2023-04-22T08:50:04.136Z,515.00
2023-04-22T08:51:05.017Z,509.00
2023-04-22T08:52:04.126Z,508.00
2023-04-22T08:53:04.120Z,527.00
2023-04-22T08:54:04.134Z,521.00
2023-04-22T08:55:11.015Z,527.00
2023-04-22T08:56:04.147Z,528.00
2023-04-22T08:57:04.138Z,529.00
2023-04-22T08:58:04.135Z,529.00
2023-04-22T08:59:04.205Z,522.00
2023-04-22T09:00:04.126Z,533.00
2023-04-22T09:01:04.154Z,527.00
2023-04-22T09:02:05.132Z,520.00
2023-04-22T09:03:04.264Z,529.00
2023-04-22T09:04:04.243Z,516.00
2023-04-22T09:05:04.145Z,525.00
2023-04-22T09:06:04.129Z,512.00
2023-04-22T09:07:04.135Z,516.00
2023-04-22T09:08:04.154Z,520.00
2023-04-22T09:09:04.137Z,514.00
2023-04-22T09:10:04.131Z,531.00
2023-04-22T09:11:11.825Z,513.00
2023-04-22T09:12:04.125Z,514.00
2023-04-22T09:13:05.012Z,518.00
2023-04-22T09:14:04.126Z,518.00
2023-04-22T09:15:04.125Z,516.00
2023-04-22T09:16:04.194Z,531.00
2023-04-22T09:17:04.162Z,532.00
2023-04-22T09:18:05.013Z,535.00
2023-04-22T09:19:06.817Z,521.00
2023-04-22T09:20:04.128Z,522.00
2023-04-22T09:21:04.131Z,522.00
2023-04-22T09:22:05.011Z,518.00
2023-04-22T09:23:05.063Z,534.00
2023-04-22T09:24:04.127Z,523.00
2023-04-22T09:25:04.123Z,534.00
2023-04-22T09:26:04.329Z,526.00
2023-04-22T09:27:18.826Z,529.00
2023-04-22T09:28:04.143Z,531.00
2023-04-22T09:29:04.131Z,533.00
2023-04-22T09:30:04.137Z,534.00
2023-04-22T09:31:04.129Z,528.00
2023-04-22T09:32:04.147Z,542.00
2023-04-22T09:33:04.185Z,523.00
2023-04-22T09:34:04.118Z,522.00
2023-04-22T09:35:04.123Z,522.00
2023-04-22T09:36:04.132Z,529.00
2023-04-22T09:37:18.327Z,538.00
2023-04-22T09:38:04.129Z,540.00
2023-04-22T09:39:04.124Z,542.00
2023-04-22T09:40:04.128Z,542.00
2023-04-22T09:41:04.137Z,543.00
2023-04-22T09:42:04.132Z,535.00
2023-04-22T09:43:04.124Z,547.00
2023-04-22T09:44:04.128Z,541.00
2023-04-22T09:45:04.131Z,531.00
2023-04-22T09:46:04.157Z,521.00
2023-04-22T09:47:04.120Z,539.00
2023-04-22T09:48:04.364Z,526.00
2023-04-22T09:49:04.354Z,539.00
2023-04-22T09:50:04.081Z,525.00
2023-04-22T09:51:03.714Z,526.00
2023-04-22T09:52:03.698Z,521.00
2023-04-22T09:53:03.690Z,509.00
2023-04-22T09:54:03.685Z,529.00
2023-04-22T09:55:03.662Z,514.00
2023-04-22T09:56:03.660Z,524.00
2023-04-22T09:57:03.649Z,532.00
2023-04-22T09:58:03.635Z,535.00
2023-04-22T09:59:03.620Z,533.00
2023-04-22T10:00:03.628Z,530.00
2023-04-22T10:01:03.682Z,520.00
2023-04-22T10:02:03.668Z,533.00
2023-04-22T10:03:03.732Z,517.00
2023-04-22T10:04:03.676Z,526.00
2023-04-22T10:05:03.615Z,515.00
2023-04-22T10:06:03.596Z,526.00
2023-04-22T10:07:03.583Z,524.00
2023-04-22T10:08:03.622Z,518.00
2023-04-22T10:09:03.607Z,522.00
2023-04-22T10:10:03.631Z,522.00
2023-04-22T10:11:03.666Z,525.00
2023-04-22T10:12:03.689Z,518.00
2023-04-22T10:13:04.091Z,518.00
2023-04-22T10:14:04.128Z,527.00
2023-04-22T10:15:04.135Z,531.00
2023-04-22T10:16:04.136Z,529.00
2023-04-22T10:17:04.226Z,525.00
2023-04-22T10:18:04.196Z,533.00
2023-04-22T10:19:04.134Z,530.00
2023-04-22T10:20:04.122Z,529.00
2023-04-22T10:21:04.156Z,530.00
2023-04-22T10:22:04.143Z,528.00
2023-04-22T10:23:04.122Z,521.00
2023-04-22T10:24:04.120Z,535.00
2023-04-22T10:25:04.132Z,533.00
2023-04-22T10:26:04.152Z,536.00
2023-04-22T10:27:04.175Z,539.00
2023-04-22T10:28:04.210Z,524.00
2023-04-22T10:29:04.247Z,528.00
2023-04-22T10:30:04.344Z,534.00
2023-04-22T10:31:04.356Z,531.00
2023-04-22T10:32:04.349Z,523.00
2023-04-22T10:33:04.387Z,524.00
2023-04-22T10:34:04.434Z,531.00
2023-04-22T10:35:05.351Z,520.00
2023-04-22T10:36:04.498Z,538.00
2023-04-22T10:37:04.546Z,528.00
2023-04-22T10:38:04.562Z,530.00
2023-04-22T10:39:04.589Z,524.00
2023-04-22T10:40:07.372Z,519.00
2023-04-22T10:41:05.015Z,534.00
2023-04-22T10:42:04.970Z,550.00
2023-04-22T10:43:04.760Z,540.00
2023-04-22T10:44:04.585Z,529.00
2023-04-22T10:45:04.598Z,534.00
2023-04-22T10:46:05.421Z,538.00
2023-04-22T10:47:04.554Z,549.00
2023-04-22T10:48:04.592Z,535.00
2023-04-22T10:49:06.559Z,540.00
2023-04-22T10:50:04.537Z,529.00
2023-04-22T10:51:04.536Z,541.00
2023-04-22T10:52:04.520Z,537.00
2023-04-22T10:53:04.545Z,533.00
2023-04-22T10:54:04.519Z,551.00
2023-04-22T10:55:04.518Z,544.00
2023-04-22T10:56:04.509Z,529.00
2023-04-22T10:57:04.554Z,531.00
2023-04-22T10:58:05.018Z,538.00
2023-04-22T10:59:05.352Z,532.00
2023-04-22T11:00:04.476Z,537.00
2023-04-22T11:01:04.508Z,524.00
2023-04-22T11:02:05.503Z,533.00
2023-04-22T11:03:04.586Z,547.00
2023-04-22T11:04:04.571Z,522.00
2023-04-22T11:05:04.482Z,536.00
2023-04-22T11:06:04.427Z,543.00
2023-04-22T11:07:04.426Z,534.00
2023-04-22T11:08:07.401Z,530.00
2023-04-22T11:09:04.400Z,531.00
2023-04-22T11:10:04.399Z,527.00
2023-04-22T11:11:04.388Z,531.00
2023-04-22T11:12:04.385Z,525.00
2023-04-22T11:13:04.356Z,538.00
2023-04-22T11:14:04.348Z,521.00
2023-04-22T11:15:04.342Z,535.00
2023-04-22T11:16:04.369Z,540.00
2023-04-22T11:17:04.330Z,545.00
2023-04-22T11:18:04.369Z,526.00
2023-04-22T11:19:04.315Z,547.00
2023-04-22T11:20:04.319Z,536.00
2023-04-22T11:21:04.400Z,526.00
2023-04-22T11:22:04.289Z,534.00
2023-04-22T11:23:04.288Z,528.00
2023-04-22T11:24:04.286Z,524.00
2023-04-22T11:25:04.370Z,540.00
2023-04-22T11:26:04.249Z,527.00
2023-04-22T11:27:04.231Z,532.00
2023-04-22T11:28:04.212Z,537.00
2023-04-22T11:29:04.212Z,543.00
2023-04-22T11:30:04.211Z,526.00
2023-04-22T11:31:04.206Z,539.00
2023-04-22T11:32:04.419Z,531.00
2023-04-22T11:33:04.207Z,545.00
2023-04-22T11:34:05.015Z,537.00
2023-04-22T11:35:11.025Z,529.00
2023-04-22T11:36:04.141Z,530.00
2023-04-22T11:37:04.126Z,531.00
2023-04-22T11:38:04.134Z,536.00
2023-04-22T11:39:04.125Z,540.00
2023-04-22T11:41:03.101Z,529.00
2023-04-22T11:42:04.126Z,532.00
2023-04-22T11:43:05.011Z,538.00
2023-04-22T11:44:04.131Z,538.00
2023-04-22T11:45:04.133Z,545.00
2023-04-22T11:46:04.429Z,536.00
2023-04-22T11:47:04.127Z,534.00
2023-04-22T11:48:04.126Z,538.00
2023-04-22T11:49:05.012Z,536.00
2023-04-22T11:50:04.130Z,545.00
2023-04-22T11:51:04.129Z,549.00
2023-04-22T11:52:04.140Z,542.00
2023-04-22T11:53:04.124Z,544.00
2023-04-22T11:54:04.125Z,545.00
2023-04-22T11:55:05.011Z,537.00
2023-04-22T11:56:06.908Z,553.00
2023-04-22T11:57:04.148Z,548.00
2023-04-22T11:58:04.135Z,545.00
2023-04-22T11:59:04.122Z,547.00
2023-04-22T12:00:04.122Z,544.00
2023-04-22T12:01:04.164Z,557.00
2023-04-22T12:02:04.181Z,552.00
2023-04-22T12:03:04.276Z,530.00
2023-04-22T12:04:04.329Z,547.00
2023-04-22T12:05:04.132Z,553.00
2023-04-22T12:06:05.090Z,533.00
2023-04-22T12:07:04.122Z,540.00
2023-04-22T12:08:04.124Z,544.00
2023-04-22T12:09:04.123Z,546.00
2023-04-22T12:10:04.128Z,549.00
2023-04-22T12:11:04.154Z,548.00
2023-04-22T12:12:04.155Z,544.00
2023-04-22T12:13:04.115Z,552.00
2023-04-22T12:14:04.121Z,555.00
2023-04-22T12:15:04.122Z,554.00
2023-04-22T12:16:04.151Z,555.00
2023-04-22T12:17:05.075Z,559.00
2023-04-22T12:18:04.120Z,539.00
2023-04-22T12:19:04.120Z,556.00
2023-04-22T12:20:04.125Z,551.00
2023-04-22T12:21:04.145Z,539.00
2023-04-22T12:22:04.131Z,540.00
2023-04-22T12:23:04.132Z,541.00
2023-04-22T12:24:04.126Z,545.00
2023-04-22T12:25:04.124Z,532.00
2023-04-22T12:26:04.150Z,551.00
2023-04-22T12:27:04.388Z,545.00
2023-04-22T12:28:04.218Z,543.00
2023-04-22T12:29:04.223Z,546.00
2023-04-22T12:30:04.257Z,548.00